createdAt,value
2017-02-08T00:00:31.849Z,956.22
2017-02-08T00:01:31.832Z,956.22
2017-02-08T00:02:31.810Z,956.2
2017-02-08T00:03:31.797Z,956.25
2017-02-08T00:04:31.777Z,956.26
2017-02-08T00:05:31.760Z,956.25
2017-02-08T00:06:31.740Z,956.22
2017-02-08T00:07:31.723Z,956.21
2017-02-08T00:08:31.707Z,956.22
2017-02-08T00:09:31.686Z,956.22
2017-02-08T00:10:31.668Z,956.23
2017-02-08T00:11:31.651Z,956.22
2017-02-08T00:12:31.634Z,956.23
2017-02-08T00:13:31.617Z,956.26
2017-02-08T00:14:31.602Z,956.24
2017-02-08T00:15:31.580Z,956.26
2017-02-08T00:16:31.563Z,956.24
2017-02-08T00:17:31.544Z,956.29
2017-02-08T00:18:31.529Z,956.29
2017-02-08T00:19:31.510Z,956.28
2017-02-08T00:20:31.489Z,956.29
2017-02-08T00:21:31.473Z,956.31
2017-02-08T00:22:31.456Z,956.34
2017-02-08T00:23:31.439Z,956.31
2017-02-08T00:24:31.422Z,956.34
2017-02-08T00:25:31.403Z,956.3
2017-02-08T00:26:31.386Z,956.34
2017-02-08T00:27:31.370Z,956.29
2017-02-08T00:28:31.349Z,956.3
2017-02-08T00:29:31.334Z,956.35
2017-02-08T00:30:31.317Z,956.31
2017-02-08T00:31:31.296Z,956.37
2017-02-08T00:32:31.276Z,956.37
2017-02-08T00:33:31.259Z,956.36
2017-02-08T00:34:31.241Z,956.33
2017-02-08T00:35:31.223Z,956.36
2017-02-08T00:36:31.208Z,956.35
2017-02-08T00:37:31.190Z,956.35
2017-02-08T00:38:31.170Z,956.38
2017-02-08T00:39:31.152Z,956.35
2017-02-08T00:40:31.133Z,956.38
2017-02-08T00:41:31.116Z,956.38
2017-02-08T00:42:31.097Z,956.38
2017-02-08T00:43:31.094Z,956.39
2017-02-08T00:44:31.065Z,956.4
2017-02-08T00:45:31.042Z,956.41
2017-02-08T00:46:31.026Z,956.4
2017-02-08T00:47:31.006Z,956.42
2017-02-08T00:48:30.992Z,956.41
2017-02-08T00:49:30.970Z,956.4
2017-02-08T00:50:30.957Z,956.42
2017-02-08T00:51:30.936Z,956.47
2017-02-08T00:52:30.919Z,956.49
2017-02-08T00:53:30.898Z,956.47
2017-02-08T00:54:30.884Z,956.46
2017-02-08T00:55:30.866Z,956.46
2017-02-08T00:56:30.845Z,956.46
2017-02-08T00:57:30.827Z,956.47
2017-02-08T00:58:30.810Z,956.48
2017-02-08T00:59:30.793Z,956.51
2017-02-08T01:00:30.774Z,956.54
2017-02-08T01:01:30.756Z,956.54
2017-02-08T01:02:30.738Z,956.51
2017-02-08T01:03:30.720Z,956.51
2017-02-08T01:04:30.702Z,956.56
2017-02-08T01:05:30.684Z,956.57
2017-02-08T01:06:30.668Z,956.6
2017-02-08T01:07:30.647Z,956.6
2017-02-08T01:08:30.629Z,956.64
2017-02-08T01:09:30.614Z,956.64
2017-02-08T01:10:30.596Z,956.69
2017-02-08T01:11:30.576Z,956.65
2017-02-08T01:12:30.557Z,956.69
2017-02-08T01:13:30.540Z,956.66
2017-02-08T01:14:30.521Z,956.65
2017-02-08T01:15:30.503Z,956.7
2017-02-08T01:16:30.486Z,956.69
2017-02-08T01:17:30.470Z,956.7
2017-02-08T01:18:30.451Z,956.72
2017-02-08T01:19:30.431Z,956.74
2017-02-08T01:20:30.414Z,956.74
2017-02-08T01:21:30.398Z,956.75
2017-02-08T01:22:30.377Z,956.73
2017-02-08T01:23:30.358Z,956.73
2017-02-08T01:24:30.341Z,956.73
2017-02-08T01:25:30.324Z,956.71
2017-02-08T01:26:30.305Z,956.72
2017-02-08T01:27:30.287Z,956.71
2017-02-08T01:28:30.269Z,956.74
2017-02-08T01:29:30.251Z,956.7
2017-02-08T01:30:30.233Z,956.75
2017-02-08T01:31:30.214Z,956.72
2017-02-08T01:32:30.195Z,956.73
2017-02-08T01:33:30.178Z,956.74
2017-02-08T01:34:30.160Z,956.71
2017-02-08T01:35:30.144Z,956.74
2017-02-08T01:36:30.125Z,956.73
2017-02-08T01:37:30.109Z,956.74
2017-02-08T01:38:30.087Z,956.74
2017-02-08T01:39:30.068Z,956.76
2017-02-08T01:40:30.051Z,956.77
2017-02-08T01:41:30.035Z,956.77
2017-02-08T01:42:30.015Z,956.74
2017-02-08T01:43:29.997Z,956.76
2017-02-08T01:44:29.977Z,956.73
2017-02-08T01:45:29.960Z,956.75
2017-02-08T01:46:29.942Z,956.65
2017-02-08T01:47:29.925Z,956.64
2017-02-08T01:48:29.906Z,956.65
2017-02-08T01:49:29.888Z,956.68
2017-02-08T01:50:29.869Z,956.72
2017-02-08T01:51:29.851Z,956.68
2017-02-08T01:52:29.835Z,956.67
2017-02-08T01:53:29.816Z,956.65
2017-02-08T01:54:29.798Z,956.75
2017-02-08T01:55:29.778Z,956.68
2017-02-08T01:56:29.759Z,956.75
2017-02-08T01:57:29.745Z,956.71
2017-02-08T01:58:29.725Z,956.73
2017-02-08T01:59:29.708Z,956.63
2017-02-08T02:00:29.691Z,956.71
2017-02-08T02:01:29.673Z,956.68
2017-02-08T02:02:29.651Z,956.67
2017-02-08T02:03:29.628Z,956.69
2017-02-08T02:04:29.610Z,956.73
2017-02-08T02:05:29.592Z,956.69
2017-02-08T02:06:29.573Z,956.7
2017-02-08T02:07:29.555Z,956.67
2017-02-08T02:08:29.538Z,956.71
2017-02-08T02:09:29.518Z,956.74
2017-02-08T02:10:29.500Z,956.73
2017-02-08T02:11:29.482Z,956.7
2017-02-08T02:12:29.467Z,956.65
2017-02-08T02:13:29.449Z,956.69
2017-02-08T02:14:29.428Z,956.63
2017-02-08T02:15:29.412Z,956.66
2017-02-08T02:16:29.391Z,956.63
2017-02-08T02:17:29.374Z,956.66
2017-02-08T02:18:29.355Z,956.61
2017-02-08T02:19:29.336Z,956.65
2017-02-08T02:20:29.319Z,956.63
2017-02-08T02:21:29.301Z,956.65
2017-02-08T02:22:29.285Z,956.65
2017-02-08T02:23:29.264Z,956.66
2017-02-08T02:24:29.247Z,956.62
2017-02-08T02:25:29.227Z,956.68
2017-02-08T02:26:29.208Z,956.59
2017-02-08T02:27:29.191Z,956.61
2017-02-08T02:28:29.172Z,956.63
2017-02-08T02:29:29.153Z,956.55
2017-02-08T02:30:29.136Z,956.57
2017-02-08T02:31:29.116Z,956.51
2017-02-08T02:32:29.106Z,956.54
2017-02-08T02:33:29.083Z,956.52
2017-02-08T02:34:29.065Z,956.58
2017-02-08T02:35:29.044Z,956.52
2017-02-08T02:36:29.025Z,956.57
2017-02-08T02:37:29.010Z,956.56
2017-02-08T02:38:28.990Z,956.51
2017-02-08T02:39:28.971Z,956.56
2017-02-08T02:40:28.953Z,956.57
2017-02-08T02:41:28.937Z,956.54
2017-02-08T02:42:28.917Z,956.57
2017-02-08T02:43:28.898Z,956.58
2017-02-08T02:44:28.881Z,956.54
2017-02-08T02:45:28.863Z,956.61
2017-02-08T02:46:28.844Z,956.58
2017-02-08T02:47:28.827Z,956.6
2017-02-08T02:48:28.808Z,956.61
2017-02-08T02:49:28.790Z,956.56
2017-02-08T02:50:28.770Z,956.52
2017-02-08T02:51:28.752Z,956.56
2017-02-08T02:52:28.734Z,956.57
2017-02-08T02:53:28.716Z,956.57
2017-02-08T02:54:28.697Z,956.46
2017-02-08T02:55:28.680Z,956.49
2017-02-08T02:56:28.662Z,956.52
2017-02-08T02:57:28.645Z,956.55
2017-02-08T02:58:28.623Z,956.5
2017-02-08T02:59:28.607Z,956.5
2017-02-08T03:00:28.590Z,956.51
2017-02-08T03:01:28.569Z,956.56
2017-02-08T03:02:28.554Z,956.51
2017-02-08T03:03:28.533Z,956.51
2017-02-08T03:04:28.514Z,956.55
2017-02-08T03:05:28.497Z,956.53
2017-02-08T03:06:28.479Z,956.5
2017-02-08T03:07:28.460Z,956.52
2017-02-08T03:08:28.445Z,956.51
2017-02-08T03:09:28.423Z,956.52
2017-02-08T03:10:28.405Z,956.51
2017-02-08T03:11:28.390Z,956.53
2017-02-08T03:12:28.369Z,956.5
2017-02-08T03:13:28.351Z,956.53
2017-02-08T03:14:28.334Z,956.55
2017-02-08T03:15:28.315Z,956.55
2017-02-08T03:16:28.297Z,956.57
2017-02-08T03:17:28.280Z,956.55
2017-02-08T03:18:28.261Z,956.57
2017-02-08T03:19:28.242Z,956.59
2017-02-08T03:20:28.224Z,956.58
2017-02-08T03:21:28.207Z,956.59
2017-02-08T03:22:28.189Z,956.6
2017-02-08T03:23:28.170Z,956.6
2017-02-08T03:24:28.156Z,956.61
2017-02-08T03:25:28.137Z,956.62
2017-02-08T03:26:28.117Z,956.61
2017-02-08T03:27:28.097Z,956.64
2017-02-08T03:28:28.080Z,956.65
2017-02-08T03:29:28.065Z,956.64
2017-02-08T03:30:28.042Z,956.62
2017-02-08T03:31:28.025Z,956.67
2017-02-08T03:32:28.008Z,956.65
2017-02-08T03:33:27.990Z,956.68
2017-02-08T03:34:27.971Z,956.67
2017-02-08T03:35:27.954Z,956.73
2017-02-08T03:36:27.936Z,956.71
2017-02-08T03:37:27.918Z,956.69
2017-02-08T03:38:27.898Z,956.7
2017-02-08T03:39:27.882Z,956.67
2017-02-08T03:40:27.867Z,956.7
2017-02-08T03:41:27.845Z,956.71
2017-02-08T03:42:27.829Z,956.68
2017-02-08T03:43:27.809Z,956.66
2017-02-08T03:44:27.796Z,956.67
2017-02-08T03:45:27.775Z,956.67
2017-02-08T03:46:27.756Z,956.64
2017-02-08T03:47:27.742Z,956.68
2017-02-08T03:48:27.719Z,956.68
2017-02-08T03:49:27.702Z,956.67
2017-02-08T03:50:27.685Z,956.69
2017-02-08T03:51:27.669Z,956.67
2017-02-08T03:52:27.651Z,956.67
2017-02-08T03:53:27.631Z,956.68
2017-02-08T03:54:27.611Z,956.69
2017-02-08T03:55:27.597Z,956.74
2017-02-08T03:56:27.576Z,956.72
2017-02-08T03:57:27.557Z,956.74
2017-02-08T03:58:27.542Z,956.64
2017-02-08T03:59:27.523Z,956.65
2017-02-08T04:00:27.503Z,956.65
2017-02-08T04:01:27.491Z,956.68
2017-02-08T04:02:27.467Z,956.67
2017-02-08T04:03:27.450Z,956.68
2017-02-08T04:04:27.433Z,956.67
2017-02-08T04:05:27.412Z,956.71
2017-02-08T04:06:27.394Z,956.73
2017-02-08T04:07:27.376Z,956.72
2017-02-08T04:08:27.359Z,956.72
2017-02-08T04:09:27.342Z,956.71
2017-02-08T04:10:27.326Z,956.75
2017-02-08T04:11:27.307Z,956.74
2017-02-08T04:12:27.285Z,956.75
2017-02-08T04:13:27.267Z,956.82
2017-02-08T04:14:27.257Z,956.83
2017-02-08T04:15:27.232Z,956.83
2017-02-08T04:16:27.212Z,956.82
2017-02-08T04:17:27.194Z,956.85
2017-02-08T04:18:27.181Z,956.87
2017-02-08T04:19:27.161Z,956.85
2017-02-08T04:20:27.144Z,956.87
2017-02-08T04:21:27.133Z,956.85
2017-02-08T04:22:27.105Z,956.9
2017-02-08T04:23:27.089Z,956.91
2017-02-08T04:24:27.068Z,956.91
2017-02-08T04:25:27.057Z,956.94
2017-02-08T04:26:27.036Z,956.97
2017-02-08T04:27:27.018Z,956.97
2017-02-08T04:28:27.000Z,956.93
2017-02-08T04:29:26.979Z,956.94
2017-02-08T04:30:26.959Z,956.89
2017-02-08T04:31:26.941Z,956.94
2017-02-08T04:32:26.922Z,956.94
2017-02-08T04:33:26.907Z,956.93
2017-02-08T04:34:26.887Z,956.96
2017-02-08T04:35:26.870Z,957
2017-02-08T04:36:26.852Z,956.96
2017-02-08T04:37:26.833Z,957.02
2017-02-08T04:38:26.813Z,957.03
2017-02-08T04:39:26.797Z,957.06
2017-02-08T04:40:26.779Z,957.03
2017-02-08T04:41:26.759Z,957.01
2017-02-08T04:42:26.741Z,957.01
2017-02-08T04:43:26.725Z,957.02
2017-02-08T04:44:26.703Z,957.03
2017-02-08T04:45:26.686Z,957.02
2017-02-08T04:46:26.667Z,957.01
2017-02-08T04:47:26.652Z,957.04
2017-02-08T04:48:26.631Z,957.04
2017-02-08T04:49:26.615Z,957.08
2017-02-08T04:50:26.594Z,957.03
2017-02-08T04:51:26.578Z,957.06
2017-02-08T04:52:26.558Z,957.05
2017-02-08T04:53:26.540Z,957.04
2017-02-08T04:54:26.521Z,957.03
2017-02-08T04:55:26.502Z,957.03
2017-02-08T04:56:26.487Z,957.04
2017-02-08T04:57:26.466Z,957.01
2017-02-08T04:58:26.448Z,957.04
2017-02-08T04:59:26.429Z,957.05
2017-02-08T05:00:26.412Z,957.08
2017-02-08T05:01:26.394Z,957.05
2017-02-08T05:02:26.374Z,956.97
2017-02-08T05:03:26.356Z,957.05
2017-02-08T05:04:26.340Z,957.02
2017-02-08T05:05:26.326Z,957.03
2017-02-08T05:06:26.326Z,956.99
2017-02-08T05:07:26.284Z,956.99
2017-02-08T05:08:26.265Z,957.03
2017-02-08T05:09:26.248Z,957.03
2017-02-08T05:10:26.233Z,957.02
2017-02-08T05:11:26.211Z,957.01
2017-02-08T05:12:26.195Z,957.03
2017-02-08T05:13:26.203Z,957.03
2017-02-08T05:14:26.157Z,957.03
2017-02-08T05:15:26.139Z,957.04
2017-02-08T05:16:26.120Z,957.02
2017-02-08T05:17:26.103Z,957.01
2017-02-08T05:18:26.086Z,957.04
2017-02-08T05:19:26.066Z,957.09
2017-02-08T05:20:26.046Z,957.09
2017-02-08T05:21:26.029Z,957.13
2017-02-08T05:22:26.012Z,957.13
2017-02-08T05:23:25.993Z,957.21
2017-02-08T05:24:25.975Z,957.19
2017-02-08T05:25:25.960Z,957.2
2017-02-08T05:26:25.939Z,957.23
2017-02-08T05:27:25.919Z,957.28
2017-02-08T05:28:25.901Z,957.21
2017-02-08T05:29:25.884Z,957.23
2017-02-08T05:30:25.867Z,957.25
2017-02-08T05:31:25.847Z,957.24
2017-02-08T05:32:25.831Z,957.31
2017-02-08T05:33:25.812Z,957.27
2017-02-08T05:34:25.793Z,957.29
2017-02-08T05:35:25.773Z,957.34
2017-02-08T05:36:25.756Z,957.26
2017-02-08T05:37:25.738Z,957.3
2017-02-08T05:38:25.718Z,957.31
2017-02-08T05:39:25.703Z,957.3
2017-02-08T05:40:25.685Z,957.37
2017-02-08T05:41:25.668Z,957.36
2017-02-08T05:42:25.646Z,957.36
2017-02-08T05:43:25.627Z,957.4
2017-02-08T05:44:25.609Z,957.41
2017-02-08T05:45:25.590Z,957.4
2017-02-08T05:46:25.572Z,957.43
2017-02-08T05:47:25.554Z,957.45
2017-02-08T05:48:25.539Z,957.45
2017-02-08T05:49:25.517Z,957.45
2017-02-08T05:50:25.501Z,957.44
2017-02-08T05:51:25.480Z,957.47
2017-02-08T05:52:25.464Z,957.44
2017-02-08T05:53:25.446Z,957.46
2017-02-08T05:54:25.424Z,957.48
2017-02-08T05:55:25.406Z,957.44
2017-02-08T05:56:25.387Z,957.44
2017-02-08T05:57:25.368Z,957.52
2017-02-08T05:58:25.351Z,957.54
2017-02-08T05:59:25.332Z,957.54
2017-02-08T06:00:25.315Z,957.54
2017-02-08T06:01:25.295Z,957.59
2017-02-08T06:02:25.277Z,957.6
2017-02-08T06:03:25.258Z,957.62
2017-02-08T06:04:25.243Z,957.62
2017-02-08T06:05:25.223Z,957.66
2017-02-08T06:06:25.203Z,957.65
2017-02-08T06:07:25.187Z,957.67
2017-02-08T06:08:25.165Z,957.69
2017-02-08T06:09:25.147Z,957.66
2017-02-08T06:10:25.132Z,957.69
2017-02-08T06:11:25.113Z,957.76
2017-02-08T06:12:25.093Z,957.77
2017-02-08T06:13:25.073Z,957.81
2017-02-08T06:14:25.054Z,957.84
2017-02-08T06:15:25.039Z,957.87
2017-02-08T06:16:25.018Z,957.84
2017-02-08T06:17:25.000Z,957.85
2017-02-08T06:18:24.981Z,957.83
2017-02-08T06:19:24.964Z,957.88
2017-02-08T06:20:24.945Z,957.89
2017-02-08T06:21:24.929Z,957.86
2017-02-08T06:22:24.907Z,957.91
2017-02-08T06:23:24.891Z,957.92
2017-02-08T06:24:24.870Z,957.91
2017-02-08T06:25:24.855Z,957.94
2017-02-08T06:26:24.836Z,957.96
2017-02-08T06:27:24.815Z,958
2017-02-08T06:28:24.801Z,958.01
2017-02-08T06:29:24.778Z,958
2017-02-08T06:30:27.257Z,957.99
2017-02-08T06:31:24.742Z,958.02
2017-02-08T06:32:24.724Z,958.04
2017-02-08T06:33:24.707Z,958.08
2017-02-08T06:34:24.689Z,958.06
2017-02-08T06:35:24.669Z,958.07
2017-02-08T06:36:24.652Z,958.1
2017-02-08T06:37:24.631Z,958.08
2017-02-08T06:38:24.612Z,958.12
2017-02-08T06:39:24.597Z,958.1
2017-02-08T06:40:24.575Z,958.11
2017-02-08T06:41:24.560Z,958.08
2017-02-08T06:42:24.539Z,958.09
2017-02-08T06:43:24.521Z,958.14
2017-02-08T06:44:24.506Z,958.16
2017-02-08T06:45:24.484Z,958.16
2017-02-08T06:46:24.467Z,958.18
2017-02-08T06:47:24.448Z,958.23
2017-02-08T06:48:24.428Z,958.22
2017-02-08T06:49:24.410Z,958.23
2017-02-08T06:50:24.394Z,958.23
2017-02-08T06:51:24.377Z,958.27
2017-02-08T06:52:24.359Z,958.23
2017-02-08T06:53:24.336Z,958.3
2017-02-08T06:54:24.317Z,958.31
2017-02-08T06:55:24.297Z,958.29
2017-02-08T06:56:24.283Z,958.3
2017-02-08T06:57:24.262Z,958.29
2017-02-08T06:58:24.242Z,958.3
2017-02-08T06:59:24.224Z,958.3
2017-02-08T07:00:24.206Z,958.33
2017-02-08T07:01:24.188Z,958.34
2017-02-08T07:02:24.169Z,958.32
2017-02-08T07:03:24.151Z,958.36
2017-02-08T07:04:24.133Z,958.36
2017-02-08T07:05:24.113Z,958.38
2017-02-08T07:06:24.095Z,958.39
2017-02-08T07:07:24.077Z,958.41
2017-02-08T07:08:24.059Z,958.39
2017-02-08T07:09:24.039Z,958.4
2017-02-08T07:10:24.021Z,958.41
2017-02-08T07:11:24.003Z,958.44
2017-02-08T07:12:23.984Z,958.46
2017-02-08T07:13:23.965Z,958.43
2017-02-08T07:14:23.949Z,958.39
2017-02-08T07:15:23.927Z,958.47
2017-02-08T07:16:23.909Z,958.46
2017-02-08T07:17:23.894Z,958.5
2017-02-08T07:18:23.873Z,958.47
2017-02-08T07:19:23.854Z,958.49
2017-02-08T07:20:23.835Z,958.51
2017-02-08T07:21:23.817Z,958.52
2017-02-08T07:22:23.798Z,958.5
2017-02-08T07:23:23.780Z,958.5
2017-02-08T07:24:23.761Z,958.53
2017-02-08T07:25:23.742Z,958.57
2017-02-08T07:26:23.724Z,958.55
2017-02-08T07:27:23.706Z,958.56
2017-02-08T07:28:23.689Z,958.63
2017-02-08T07:29:23.667Z,958.64
2017-02-08T07:30:23.650Z,958.66
2017-02-08T07:31:23.680Z,958.63
2017-02-08T07:32:23.612Z,958.7
2017-02-08T07:33:23.596Z,958.66
2017-02-08T07:34:23.577Z,958.7
2017-02-08T07:35:23.555Z,958.71
2017-02-08T07:36:23.542Z,958.7
2017-02-08T07:37:23.521Z,958.74
2017-02-08T07:38:23.501Z,958.75
2017-02-08T07:39:23.481Z,958.79
2017-02-08T07:40:23.465Z,958.79
2017-02-08T07:41:23.444Z,958.78
2017-02-08T07:42:23.425Z,958.76
2017-02-08T07:43:23.407Z,958.79
2017-02-08T07:44:23.388Z,958.77
2017-02-08T07:45:23.369Z,958.75
2017-02-08T07:46:23.353Z,958.78
2017-02-08T07:47:23.331Z,958.8
2017-02-08T07:48:23.313Z,958.78
2017-02-08T07:49:23.294Z,958.73
2017-02-08T07:50:23.276Z,958.75
2017-02-08T07:51:23.260Z,958.8
2017-02-08T07:52:23.242Z,958.77
2017-02-08T07:53:23.223Z,958.79
2017-02-08T07:54:23.201Z,958.77
2017-02-08T07:55:23.182Z,958.75
2017-02-08T07:56:23.164Z,958.79
2017-02-08T07:57:23.146Z,958.8
2017-02-08T07:58:23.126Z,958.79
2017-02-08T07:59:23.108Z,958.74
2017-02-08T08:00:23.091Z,958.78
2017-02-08T08:01:23.071Z,958.79
2017-02-08T08:02:23.052Z,958.81
2017-02-08T08:03:23.033Z,958.75
2017-02-08T08:04:23.013Z,958.79
2017-02-08T08:05:22.995Z,958.84
2017-02-08T08:06:22.978Z,958.83
2017-02-08T08:07:22.958Z,958.8
2017-02-08T08:08:22.938Z,958.83
2017-02-08T08:09:22.920Z,958.79
2017-02-08T08:10:22.902Z,958.81
2017-02-08T08:11:22.882Z,958.8
2017-02-08T08:12:22.864Z,958.83
2017-02-08T08:13:22.845Z,958.81
2017-02-08T08:14:22.827Z,958.8
2017-02-08T08:15:22.809Z,958.81
2017-02-08T08:16:22.790Z,958.83
2017-02-08T08:17:22.770Z,958.86
2017-02-08T08:18:22.752Z,958.85
2017-02-08T08:19:22.736Z,958.85
2017-02-08T08:20:22.718Z,958.87
2017-02-08T08:21:22.697Z,958.83
2017-02-08T08:22:22.678Z,958.84
2017-02-08T08:23:22.660Z,958.83
2017-02-08T08:24:22.641Z,958.8
2017-02-08T08:25:22.623Z,958.8
2017-02-08T08:26:22.603Z,958.82
2017-02-08T08:27:22.587Z,958.8
2017-02-08T08:28:22.566Z,958.78
2017-02-08T08:29:22.548Z,958.75
2017-02-08T08:30:22.529Z,958.78
2017-02-08T08:31:22.510Z,958.73
2017-02-08T08:32:22.494Z,958.76
2017-02-08T08:33:22.474Z,958.76
2017-02-08T08:34:22.457Z,958.76
2017-02-08T08:35:22.437Z,958.78
2017-02-08T08:36:22.419Z,958.78
2017-02-08T08:37:22.399Z,958.79
2017-02-08T08:38:22.381Z,958.83
2017-02-08T08:39:22.366Z,958.83
2017-02-08T08:40:22.346Z,958.84
2017-02-08T08:41:22.328Z,958.85
2017-02-08T08:42:22.310Z,958.84
2017-02-08T08:43:22.290Z,958.87
2017-02-08T08:44:22.274Z,958.89
2017-02-08T08:45:22.253Z,958.87
2017-02-08T08:46:22.236Z,958.87
2017-02-08T08:47:22.218Z,958.86
2017-02-08T08:48:22.202Z,958.87
2017-02-08T08:49:22.181Z,958.9
2017-02-08T08:50:22.163Z,958.9
2017-02-08T08:51:22.144Z,958.88
2017-02-08T08:52:22.129Z,958.88
2017-02-08T08:53:22.110Z,958.95
2017-02-08T08:54:22.090Z,958.97
2017-02-08T08:55:22.072Z,958.95
2017-02-08T08:56:22.056Z,958.97
2017-02-08T08:57:22.036Z,958.94
2017-02-08T08:58:22.019Z,958.95
2017-02-08T08:59:22.002Z,958.97
2017-02-08T09:00:21.981Z,958.97
2017-02-08T09:01:21.963Z,958.97
2017-02-08T09:02:21.945Z,958.98
2017-02-08T09:03:21.927Z,958.97
2017-02-08T09:04:21.909Z,958.97
2017-02-08T09:05:21.891Z,958.98
2017-02-08T09:06:21.875Z,959.02
2017-02-08T09:07:21.854Z,959.01
2017-02-08T09:08:21.836Z,958.98
2017-02-08T09:09:21.819Z,958.99
2017-02-08T09:10:21.801Z,959.03
2017-02-08T09:11:21.782Z,959.01
2017-02-08T09:12:21.765Z,959.01
2017-02-08T09:13:21.745Z,959.03
2017-02-08T09:14:21.729Z,959.04
2017-02-08T09:15:21.713Z,959.05
2017-02-08T09:16:21.690Z,959.05
2017-02-08T09:17:21.674Z,959.07
2017-02-08T09:18:21.655Z,959.06
2017-02-08T09:19:21.639Z,959.09
2017-02-08T09:20:21.619Z,959.12
2017-02-08T09:21:21.600Z,959.06
2017-02-08T09:22:21.583Z,959.15
2017-02-08T09:23:21.565Z,959.11
2017-02-08T09:24:21.546Z,959.09
2017-02-08T09:25:21.528Z,959.14
2017-02-08T09:26:21.509Z,959.14
2017-02-08T09:27:21.492Z,959.18
2017-02-08T09:28:21.473Z,959.19
2017-02-08T09:29:21.456Z,959.21
2017-02-08T09:30:21.439Z,959.28
2017-02-08T09:31:21.421Z,959.24
2017-02-08T09:32:21.404Z,959.24
2017-02-08T09:33:21.383Z,959.24
2017-02-08T09:34:21.366Z,959.22
2017-02-08T09:35:21.350Z,959.25
2017-02-08T09:36:21.329Z,959.2
2017-02-08T09:37:21.311Z,959.21
2017-02-08T09:38:21.297Z,959.26
2017-02-08T09:39:21.278Z,959.25
2017-02-08T09:40:21.260Z,959.32
2017-02-08T09:41:21.240Z,959.29
2017-02-08T09:42:21.226Z,959.29
2017-02-08T09:43:21.204Z,959.28
2017-02-08T09:44:21.185Z,959.29
2017-02-08T09:45:21.169Z,959.29
2017-02-08T09:46:21.153Z,959.26
2017-02-08T09:47:21.132Z,959.33
2017-02-08T09:48:21.117Z,959.35
2017-02-08T09:49:21.096Z,959.37
2017-02-08T09:50:21.078Z,959.37
2017-02-08T09:51:21.063Z,959.37
2017-02-08T09:52:21.045Z,959.4
2017-02-08T09:53:21.025Z,959.43
2017-02-08T09:54:21.008Z,959.42
2017-02-08T09:55:20.991Z,959.44
2017-02-08T09:56:20.972Z,959.43
2017-02-08T09:57:20.957Z,959.48
2017-02-08T09:58:20.936Z,959.51
2017-02-08T09:59:20.919Z,959.51
2017-02-08T10:00:20.901Z,959.53
2017-02-08T10:01:20.883Z,959.54
2017-02-08T10:02:20.865Z,959.52
2017-02-08T10:03:20.849Z,959.53
2017-02-08T10:04:20.829Z,959.52
2017-02-08T10:05:20.813Z,959.56
2017-02-08T10:06:20.795Z,959.59
2017-02-08T10:07:20.775Z,959.57
2017-02-08T10:08:20.758Z,959.55
2017-02-08T10:09:20.741Z,959.65
2017-02-08T10:10:20.725Z,959.62
2017-02-08T10:11:20.705Z,959.59
2017-02-08T10:12:20.687Z,959.63
2017-02-08T10:13:20.670Z,959.62
2017-02-08T10:14:20.650Z,959.6
2017-02-08T10:15:20.636Z,959.65
2017-02-08T10:16:20.616Z,959.64
2017-02-08T10:17:20.601Z,959.68
2017-02-08T10:18:20.583Z,959.66
2017-02-08T10:19:20.561Z,959.65
2017-02-08T10:20:20.544Z,959.66
2017-02-08T10:21:20.527Z,959.67
2017-02-08T10:22:20.510Z,959.67
2017-02-08T10:23:20.491Z,959.64
2017-02-08T10:24:20.473Z,959.61
2017-02-08T10:25:20.459Z,959.63
2017-02-08T10:26:20.436Z,959.61
2017-02-08T10:27:20.422Z,959.61
2017-02-08T10:28:20.405Z,959.64
2017-02-08T10:29:20.384Z,959.69
2017-02-08T10:30:20.366Z,959.65
2017-02-08T10:31:20.350Z,959.7
2017-02-08T10:32:20.333Z,959.64
2017-02-08T10:33:20.315Z,959.67
2017-02-08T10:34:20.296Z,959.67
2017-02-08T10:35:20.279Z,959.62
2017-02-08T10:36:20.259Z,959.65
2017-02-08T10:37:20.242Z,959.64
2017-02-08T10:38:20.222Z,959.67
2017-02-08T10:39:20.204Z,959.62
2017-02-08T10:40:20.187Z,959.64
2017-02-08T10:41:20.167Z,959.65
2017-02-08T10:42:20.153Z,959.69
2017-02-08T10:43:20.136Z,959.68
2017-02-08T10:44:20.118Z,959.71
2017-02-08T10:45:20.099Z,959.68
2017-02-08T10:46:20.082Z,959.69
2017-02-08T10:47:20.062Z,959.72
2017-02-08T10:48:20.044Z,959.69
2017-02-08T10:49:20.026Z,959.72
2017-02-08T10:50:20.012Z,959.71
2017-02-08T10:51:19.991Z,959.71
2017-02-08T10:52:19.975Z,959.72
2017-02-08T10:53:19.956Z,959.71
2017-02-08T10:54:19.944Z,959.69
2017-02-08T10:55:19.921Z,959.75
2017-02-08T10:56:19.903Z,959.73
2017-02-08T10:57:19.883Z,959.76
2017-02-08T10:58:19.866Z,959.75
2017-02-08T10:59:19.848Z,959.79
2017-02-08T11:00:19.833Z,959.76
2017-02-08T11:01:19.815Z,959.77
2017-02-08T11:02:19.795Z,959.78
2017-02-08T11:03:19.776Z,959.77
2017-02-08T11:04:19.758Z,959.77
2017-02-08T11:05:19.740Z,959.75
2017-02-08T11:06:19.723Z,959.77
2017-02-08T11:07:19.704Z,959.79
2017-02-08T11:08:19.691Z,959.78
2017-02-08T11:09:19.669Z,959.81
2017-02-08T11:10:19.651Z,959.81
2017-02-08T11:11:19.633Z,959.82
2017-02-08T11:12:19.616Z,959.84
2017-02-08T11:13:19.599Z,959.86
2017-02-08T11:14:19.580Z,959.86
2017-02-08T11:15:19.562Z,959.86
2017-02-08T11:16:19.544Z,959.86
2017-02-08T11:17:19.533Z,959.84
2017-02-08T11:18:19.511Z,959.81
2017-02-08T11:19:19.492Z,959.81
2017-02-08T11:20:19.473Z,959.81
2017-02-08T11:21:19.455Z,959.78
2017-02-08T11:22:19.437Z,959.79
2017-02-08T11:23:19.420Z,959.78
2017-02-08T11:24:19.402Z,959.81
2017-02-08T11:25:19.382Z,959.82
2017-02-08T11:26:19.366Z,959.79
2017-02-08T11:27:19.348Z,959.78
2017-02-08T11:28:19.332Z,959.83
2017-02-08T11:29:19.313Z,959.84
2017-02-08T11:30:19.295Z,959.85
2017-02-08T11:31:19.281Z,959.88
2017-02-08T11:32:19.260Z,959.86
2017-02-08T11:33:19.242Z,959.85
2017-02-08T11:34:19.224Z,959.93
2017-02-08T11:35:19.208Z,959.86
2017-02-08T11:36:19.188Z,959.84
2017-02-08T11:37:19.170Z,959.85
2017-02-08T11:38:19.151Z,959.89
2017-02-08T11:39:19.137Z,959.92
2017-02-08T11:40:19.115Z,959.9
2017-02-08T11:41:19.098Z,959.95
2017-02-08T11:42:19.086Z,959.95
2017-02-08T11:43:19.062Z,959.95
2017-02-08T11:44:19.044Z,959.97
2017-02-08T11:45:19.026Z,959.95
2017-02-08T11:46:19.010Z,959.97
2017-02-08T11:47:18.994Z,959.91
2017-02-08T11:48:18.973Z,959.97
2017-02-08T11:49:18.982Z,959.92
2017-02-08T11:50:18.936Z,960
2017-02-08T11:51:18.922Z,959.95
2017-02-08T11:52:18.904Z,959.95
2017-02-08T11:53:18.884Z,959.95
2017-02-08T11:54:18.864Z,959.94
2017-02-08T11:55:18.850Z,960.02
2017-02-08T11:56:18.829Z,959.95
2017-02-08T11:57:18.812Z,959.97
2017-02-08T11:58:18.896Z,959.97
2017-02-08T11:59:18.775Z,959.96
2017-02-08T12:00:18.758Z,959.95
2017-02-08T12:01:18.738Z,959.91
2017-02-08T12:02:18.724Z,959.96
2017-02-08T12:03:18.803Z,959.94
2017-02-08T12:04:18.686Z,959.97
2017-02-08T12:05:18.667Z,959.96
2017-02-08T12:06:18.650Z,960
2017-02-08T12:07:18.632Z,959.99
2017-02-08T12:08:18.615Z,959.99
2017-02-08T12:09:18.599Z,959.94
2017-02-08T12:10:18.582Z,960.01
2017-02-08T12:11:18.561Z,959.96
2017-02-08T12:12:18.546Z,959.91
2017-02-08T12:13:18.583Z,959.97
2017-02-08T12:14:18.507Z,959.92
2017-02-08T12:15:18.491Z,959.96
2017-02-08T12:16:18.473Z,959.99
2017-02-08T12:17:18.455Z,959.97
2017-02-08T12:18:18.441Z,960.01
2017-02-08T12:19:18.525Z,960
2017-02-08T12:20:18.405Z,960.02
2017-02-08T12:21:18.387Z,959.99
2017-02-08T12:22:18.370Z,960
2017-02-08T12:23:18.349Z,959.99
2017-02-08T12:24:18.331Z,959.96
2017-02-08T12:25:18.314Z,959.98
2017-02-08T12:26:18.296Z,959.99
2017-02-08T12:27:18.280Z,960
2017-02-08T12:28:18.261Z,960.02
2017-02-08T12:29:18.242Z,960.03
2017-02-08T12:30:18.225Z,960.03
2017-02-08T12:31:18.210Z,959.99